createdAt,value
2022-12-11T00:00:14.053Z,26.30
2022-12-11T00:02:40.786Z,26.07
2022-12-11T00:05:08.057Z,28.67
2022-12-11T00:07:35.004Z,26.00
2022-12-11T00:10:01.692Z,25.27
2022-12-11T00:12:32.763Z,25.17
2022-12-11T00:14:59.769Z,25.60
2022-12-11T00:17:26.670Z,25.90
2022-12-11T00:19:53.355Z,26.53
2022-12-11T00:22:20.121Z,25.57
2022-12-11T00:24:47.413Z,26.90
2022-12-11T00:27:14.146Z,27.40
2022-12-11T00:29:40.860Z,27.30
2022-12-11T00:32:07.674Z,26.90
2022-12-11T00:34:34.513Z,26.60
2022-12-11T00:37:01.271Z,29.50
2022-12-11T00:39:30.639Z,26.20
2022-12-11T00:41:58.379Z,27.73
2022-12-11T00:44:26.312Z,27.60
2022-12-11T00:46:55.846Z,28.03
2022-12-11T00:49:22.623Z,27.27
2022-12-11T00:51:51.230Z,27.63
2022-12-11T00:54:18.060Z,27.30
2022-12-11T00:56:44.978Z,28.30
2022-12-11T00:59:11.712Z,27.50
2022-12-11T01:01:38.947Z,26.10
2022-12-11T01:04:05.968Z,28.53
2022-12-11T01:06:32.702Z,28.40
2022-12-11T01:09:18.326Z,26.50
2022-12-11T01:11:47.881Z,26.50
2022-12-11T01:14:19.052Z,26.30
2022-12-11T01:16:47.725Z,25.87
2022-12-11T01:19:14.804Z,26.27
2022-12-11T01:21:43.101Z,25.13
2022-12-11T01:24:09.865Z,25.90
2022-12-11T01:26:36.662Z,27.00
2022-12-11T01:29:03.574Z,25.67
2022-12-11T01:31:30.412Z,25.47
2022-12-11T01:33:57.247Z,26.43
2022-12-11T01:36:24.465Z,25.43
2022-12-11T01:38:51.723Z,26.80
2022-12-11T01:41:19.229Z,26.83
2022-12-11T01:44:04.862Z,26.43
2022-12-11T01:46:34.020Z,26.83
2022-12-11T01:49:05.396Z,27.40
2022-12-11T01:51:36.140Z,24.93
2022-12-11T01:54:09.243Z,24.57
2022-12-11T01:56:41.937Z,26.67
2022-12-11T01:59:10.085Z,25.03
2022-12-11T02:01:59.634Z,25.93
2022-12-11T02:04:26.929Z,24.13
2022-12-11T02:06:54.570Z,24.67
2022-12-11T02:09:27.860Z,24.50
2022-12-11T02:12:26.350Z,23.27
2022-12-11T02:15:23.429Z,24.73
2022-12-11T02:17:56.427Z,22.27
2022-12-11T02:20:26.379Z,24.63
2022-12-11T02:23:12.639Z,22.93
2022-12-11T02:26:24.574Z,23.17
2022-12-11T02:28:57.032Z,24.57
2022-12-11T02:31:39.970Z,23.17
2022-12-11T02:34:18.949Z,21.60
2022-12-11T02:36:51.965Z,22.60
2022-12-11T02:39:22.493Z,21.63
2022-12-11T02:41:51.255Z,23.63
2022-12-11T02:44:24.735Z,21.87
2022-12-11T02:46:52.833Z,22.03
2022-12-11T02:49:22.268Z,23.27
2022-12-11T02:51:50.804Z,23.20
2022-12-11T02:54:23.525Z,22.67
2022-12-11T02:57:04.939Z,21.63
2022-12-11T02:59:37.040Z,22.17
2022-12-11T03:02:04.857Z,22.70
2022-12-11T03:04:33.867Z,22.47
2022-12-11T03:07:12.141Z,21.93
2022-12-11T03:09:41.407Z,22.13
2022-12-11T03:12:11.745Z,21.77
2022-12-11T03:14:40.651Z,22.53
2022-12-11T03:17:23.849Z,22.43
2022-12-11T03:20:00.810Z,21.93
2022-12-11T03:22:38.665Z,22.47
2022-12-11T03:25:12.792Z,21.47
2022-12-11T03:27:45.846Z,22.30
2022-12-11T03:30:17.505Z,21.47
2022-12-11T03:32:54.683Z,21.97
2022-12-11T03:35:36.276Z,21.53
2022-12-11T03:38:08.548Z,21.43
2022-12-11T03:40:40.708Z,22.47
2022-12-11T03:43:10.903Z,20.43
2022-12-11T03:45:40.224Z,21.37
2022-12-11T03:48:09.467Z,21.00
2022-12-11T03:50:37.172Z,21.77
2022-12-11T03:53:04.971Z,21.63
2022-12-11T03:55:34.004Z,20.43
2022-12-11T03:58:00.795Z,22.03
2022-12-11T04:00:28.646Z,20.20
2022-12-11T04:03:14.364Z,19.20
2022-12-11T04:05:44.533Z,19.70
2022-12-11T04:08:11.749Z,17.40
2022-12-11T04:10:39.184Z,18.17
2022-12-11T04:13:06.057Z,17.13
2022-12-11T04:15:33.188Z,17.20
2022-12-11T04:18:18.863Z,16.83
2022-12-11T04:21:04.123Z,17.90
2022-12-11T04:23:49.622Z,18.13
2022-12-11T04:26:20.001Z,18.53
2022-12-11T04:28:48.403Z,17.47
2022-12-11T04:31:18.306Z,16.70
2022-12-11T04:33:45.708Z,15.93
2022-12-11T04:36:13.362Z,17.53
2022-12-11T04:38:43.069Z,16.13
2022-12-11T04:41:12.320Z,16.83
2022-12-11T04:43:45.277Z,15.83
2022-12-11T04:46:20.901Z,17.17
2022-12-11T04:48:52.438Z,17.50
2022-12-11T04:51:22.365Z,16.90
2022-12-11T04:53:49.260Z,15.87
2022-12-11T04:56:16.763Z,16.87
2022-12-11T04:58:44.340Z,16.33
2022-12-11T05:01:16.455Z,16.37
2022-12-11T05:03:43.295Z,14.70
2022-12-11T05:06:10.543Z,16.13
2022-12-11T05:08:40.311Z,15.63
2022-12-11T05:11:09.848Z,15.30
2022-12-11T05:13:36.659Z,15.27
2022-12-11T05:16:08.499Z,16.40
2022-12-11T05:18:38.727Z,14.93
2022-12-11T05:21:08.693Z,13.73
2022-12-11T05:23:36.082Z,13.80
2022-12-11T05:26:05.785Z,13.23
2022-12-11T05:28:35.788Z,14.57
2022-12-11T05:31:07.151Z,15.93
2022-12-11T05:33:34.314Z,15.53
2022-12-11T05:36:01.450Z,13.73
2022-12-11T05:38:28.182Z,15.23
2022-12-11T05:41:07.678Z,17.07
2022-12-11T05:43:36.820Z,15.97
2022-12-11T05:46:21.965Z,16.77
2022-12-11T05:48:51.534Z,16.40
2022-12-11T05:51:19.464Z,15.50
2022-12-11T05:53:47.844Z,16.37
2022-12-11T05:56:24.559Z,14.77
2022-12-11T05:58:51.813Z,16.50
2022-12-11T06:01:25.382Z,16.53
2022-12-11T06:03:53.688Z,16.13
2022-12-11T06:06:20.698Z,15.07
2022-12-11T06:08:50.985Z,16.07
2022-12-11T06:11:24.219Z,16.47
2022-12-11T06:13:52.424Z,16.00
2022-12-11T06:16:20.042Z,16.77
2022-12-11T06:18:47.158Z,16.87
2022-12-11T06:21:26.873Z,15.47
2022-12-11T06:23:55.854Z,13.83
2022-12-11T06:26:22.659Z,15.30
2022-12-11T06:28:50.115Z,14.70
2022-12-11T06:31:17.821Z,14.73
2022-12-11T06:33:44.765Z,14.53
2022-12-11T06:36:17.657Z,14.90
2022-12-11T06:38:45.372Z,13.97
2022-12-11T06:41:12.744Z,13.63
2022-12-11T06:43:40.392Z,12.73
2022-12-11T06:46:18.756Z,13.67
2022-12-11T06:48:49.607Z,12.50
2022-12-11T06:51:19.267Z,13.33
2022-12-11T06:53:51.079Z,13.53
2022-12-11T06:56:26.950Z,12.67
2022-12-11T06:58:53.997Z,12.93
2022-12-11T07:01:26.290Z,12.80
2022-12-11T07:03:54.722Z,13.40
2022-12-11T07:06:21.986Z,13.77
2022-12-11T07:08:51.902Z,13.77
2022-12-11T07:11:19.882Z,13.30
2022-12-11T07:13:47.513Z,14.37
2022-12-11T07:16:15.918Z,13.40
2022-12-11T07:18:53.167Z,12.20
2022-12-11T07:21:21.324Z,12.90
2022-12-11T07:23:49.335Z,13.10
2022-12-11T07:26:19.498Z,12.33
2022-12-11T07:28:46.634Z,15.03
2022-12-11T07:31:16.813Z,13.80
2022-12-11T07:33:43.858Z,14.33
2022-12-11T07:36:15.176Z,13.33
2022-12-11T07:38:41.993Z,11.63
2022-12-11T07:41:11.580Z,14.50
2022-12-11T07:43:41.943Z,14.00
2022-12-11T07:46:15.635Z,14.73
2022-12-11T07:48:44.678Z,13.00
2022-12-11T07:51:15.576Z,14.00
2022-12-11T07:53:44.178Z,13.67
2022-12-11T07:56:11.727Z,13.80
2022-12-11T07:58:39.055Z,14.00
2022-12-11T08:01:13.969Z,14.03
2022-12-11T08:03:41.007Z,11.90
2022-12-11T08:06:08.251Z,14.43
2022-12-11T08:08:38.046Z,11.83
2022-12-11T08:11:06.717Z,12.03
2022-12-11T08:13:33.633Z,12.57
2022-12-11T08:16:07.343Z,12.60
2022-12-11T08:18:37.900Z,12.67
2022-12-11T08:21:13.111Z,12.20
2022-12-11T08:23:39.885Z,12.40
2022-12-11T08:26:09.406Z,11.77
2022-12-11T08:28:36.381Z,12.07
2022-12-11T08:31:11.379Z,12.03
2022-12-11T08:33:40.013Z,11.83
2022-12-11T08:36:08.773Z,12.07
2022-12-11T08:38:38.774Z,11.90
2022-12-11T08:41:23.357Z,12.07
2022-12-11T08:43:54.891Z,12.53
2022-12-11T08:46:27.154Z,12.10
2022-12-11T08:48:55.105Z,11.30
2022-12-11T08:51:25.715Z,12.50
2022-12-11T08:53:56.179Z,12.93
2022-12-11T08:56:23.774Z,10.57
2022-12-11T08:58:51.983Z,12.07
2022-12-11T09:01:26.041Z,12.30
2022-12-11T09:03:54.751Z,12.30
2022-12-11T09:06:24.200Z,12.50
2022-12-11T09:08:56.156Z,12.73
2022-12-11T09:11:29.064Z,13.57
2022-12-11T09:13:55.887Z,14.17
2022-12-11T09:16:24.980Z,13.07
2022-12-11T09:18:53.565Z,12.53
2022-12-11T09:21:22.547Z,13.97
2022-12-11T09:23:49.513Z,14.13
2022-12-11T09:26:18.323Z,11.80
2022-12-11T09:28:46.940Z,12.00
2022-12-11T09:31:23.644Z,13.07
2022-12-11T09:33:52.061Z,13.23
2022-12-11T09:36:19.053Z,11.80
2022-12-11T09:38:46.511Z,12.20
2022-12-11T09:41:31.646Z,13.47
2022-12-11T09:44:31.324Z,13.27
2022-12-11T09:46:59.184Z,12.80
2022-12-11T09:49:25.836Z,12.67
2022-12-11T09:52:01.842Z,12.03
2022-12-11T09:54:28.808Z,12.50
2022-12-11T09:56:57.622Z,13.70
2022-12-11T09:59:43.743Z,12.53
2022-12-11T10:02:39.007Z,11.93
2022-12-11T10:05:36.457Z,12.13
2022-12-11T10:08:14.304Z,12.47
2022-12-11T10:10:54.618Z,13.40
2022-12-11T10:13:46.313Z,13.03
2022-12-11T10:16:35.011Z,14.00
2022-12-11T10:19:04.486Z,14.03
2022-12-11T10:21:39.984Z,13.83
2022-12-11T10:24:29.358Z,13.73
2022-12-11T10:27:15.556Z,13.73
2022-12-11T10:29:42.400Z,14.03
2022-12-11T10:32:22.876Z,14.73
2022-12-11T10:34:57.350Z,13.30
2022-12-11T10:37:24.352Z,13.40
2022-12-11T10:39:51.121Z,14.53
2022-12-11T10:42:20.562Z,13.67
2022-12-11T10:45:01.839Z,14.17
2022-12-11T10:47:29.162Z,15.77
2022-12-11T10:50:03.854Z,14.13
2022-12-11T10:52:44.478Z,13.77
2022-12-11T10:55:23.479Z,14.80
2022-12-11T10:58:02.714Z,15.07
2022-12-11T11:00:38.446Z,15.17
2022-12-11T11:03:20.038Z,15.23
2022-12-11T11:05:49.537Z,14.93
2022-12-11T11:08:21.609Z,15.23
2022-12-11T11:10:57.283Z,16.40
2022-12-11T11:13:26.448Z,15.90
2022-12-11T11:16:09.888Z,17.10
2022-12-11T11:18:37.390Z,16.60
2022-12-11T11:21:04.444Z,16.50
2022-12-11T11:23:31.289Z,16.67
2022-12-11T11:26:00.756Z,17.47
2022-12-11T11:28:36.032Z,17.63
2022-12-11T11:31:06.312Z,17.40
2022-12-11T11:33:45.511Z,16.90
2022-12-11T11:36:22.185Z,17.27
2022-12-11T11:39:03.968Z,16.93
2022-12-11T11:41:55.281Z,17.70
2022-12-11T11:44:30.055Z,17.20
2022-12-11T11:47:23.332Z,17.83
2022-12-11T11:50:03.847Z,17.87
2022-12-11T11:52:38.217Z,17.63
2022-12-11T11:55:21.476Z,18.40
2022-12-11T11:58:01.120Z,17.57
2022-12-11T12:00:33.647Z,18.27
2022-12-11T12:03:16.185Z,17.93
2022-12-11T12:05:55.627Z,18.73
2022-12-11T12:08:46.378Z,17.73
2022-12-11T12:11:41.290Z,17.73
2022-12-11T12:14:51.044Z,17.20
2022-12-11T12:17:38.074Z,16.70
2022-12-11T12:20:13.678Z,17.10
2022-12-11T12:23:08.278Z,17.03
2022-12-11T12:25:54.109Z,16.33
2022-12-11T12:28:45.112Z,17.23
2022-12-11T12:31:27.879Z,16.13
2022-12-11T12:34:33.288Z,17.20
2022-12-11T12:37:27.512Z,16.73
2022-12-11T12:40:00.180Z,16.40
2022-12-11T12:43:08.435Z,17.43
2022-12-11T12:45:56.198Z,17.20
2022-12-11T12:48:24.983Z,17.73
2022-12-11T12:50:52.027Z,15.20
2022-12-11T12:53:23.645Z,17.10
2022-12-11T12:55:51.569Z,16.87
2022-12-11T12:58:35.661Z,16.43
2022-12-11T13:01:19.389Z,14.60
2022-12-11T13:04:05.741Z,16.10
2022-12-11T13:06:45.494Z,15.23
2022-12-11T13:09:25.915Z,14.63
2022-12-11T13:11:59.762Z,15.23
2022-12-11T13:14:33.757Z,14.63
2022-12-11T13:17:21.769Z,15.27
2022-12-11T13:19:50.763Z,15.50
2022-12-11T13:22:17.514Z,14.97
2022-12-11T13:24:53.422Z,14.87
2022-12-11T13:27:43.728Z,14.00
2022-12-11T13:30:24.720Z,14.90
2022-12-11T13:33:14.549Z,14.40
2022-12-11T13:35:41.751Z,14.43
2022-12-11T13:38:17.580Z,13.13
2022-12-11T13:40:46.748Z,13.03
2022-12-11T13:43:23.664Z,13.33
2022-12-11T13:46:02.172Z,14.57
2022-12-11T13:48:37.889Z,14.23
2022-12-11T13:51:06.167Z,12.67
2022-12-11T13:53:36.220Z,11.73
2022-12-11T13:56:13.871Z,11.93
2022-12-11T13:58:40.784Z,11.23
2022-12-11T14:01:11.489Z,12.00
2022-12-11T14:03:53.881Z,11.13
2022-12-11T14:06:20.709Z,11.70
2022-12-11T14:08:53.145Z,11.53
2022-12-11T14:11:27.933Z,9.97
2022-12-11T14:13:59.616Z,9.63
2022-12-11T14:16:27.797Z,8.90
2022-12-11T14:19:02.200Z,9.33
2022-12-11T14:21:31.143Z,9.90
2022-12-11T14:24:00.561Z,9.30
2022-12-11T14:26:30.283Z,9.83
2022-12-11T14:28:57.070Z,9.37
2022-12-11T14:31:29.669Z,9.77
2022-12-11T14:34:12.743Z,9.87
2022-12-11T14:36:41.132Z,9.40
2022-12-11T14:39:14.328Z,9.70
2022-12-11T14:42:10.494Z,10.73
2022-12-11T14:44:50.339Z,10.77
2022-12-11T14:47:21.551Z,10.27
2022-12-11T14:50:09.390Z,9.73
2022-12-11T14:52:41.178Z,9.57
2022-12-11T14:55:20.708Z,9.77
2022-12-11T14:57:51.659Z,11.07
2022-12-11T15:00:38.231Z,10.37
2022-12-11T15:03:22.995Z,9.40
2022-12-11T15:05:51.596Z,9.37
2022-12-11T15:08:24.824Z,9.20
2022-12-11T15:11:30.042Z,11.70
2022-12-11T15:14:00.240Z,10.40
2022-12-11T15:16:31.592Z,10.30
2022-12-11T15:18:58.831Z,10.43
2022-12-11T15:21:33.935Z,9.97
2022-12-11T15:24:04.022Z,10.13
2022-12-11T15:26:33.793Z,10.20
2022-12-11T15:29:27.239Z,10.87
2022-12-11T15:32:14.147Z,9.63
2022-12-11T15:34:59.042Z,10.13
2022-12-11T15:37:28.585Z,10.47
2022-12-11T15:39:56.960Z,10.30
2022-12-11T15:42:26.765Z,10.50
2022-12-11T15:44:55.488Z,10.17
2022-12-11T15:47:25.677Z,11.57
2022-12-11T15:49:59.386Z,10.97
2022-12-11T15:52:26.275Z,11.13
2022-12-11T15:54:53.133Z,10.60
2022-12-11T15:57:22.959Z,10.37
2022-12-11T15:59:52.676Z,10.00
2022-12-11T16:02:19.437Z,11.63
2022-12-11T16:04:46.377Z,11.27
2022-12-11T16:07:23.021Z,11.50
2022-12-11T16:09:49.846Z,12.20
2022-12-11T16:12:17.108Z,11.63
2022-12-11T16:14:45.274Z,11.10
2022-12-11T16:17:14.885Z,11.37
2022-12-11T16:19:43.367Z,11.90
2022-12-11T16:22:11.510Z,11.57
2022-12-11T16:24:41.163Z,11.37
2022-12-11T16:27:11.571Z,11.70
2022-12-11T16:29:40.694Z,11.47
2022-12-11T16:32:08.351Z,12.53
2022-12-11T16:34:37.322Z,12.27
2022-12-11T16:37:10.930Z,12.50
2022-12-11T16:39:38.600Z,12.60
2022-12-11T16:42:06.505Z,12.73
2022-12-11T16:44:33.391Z,11.73
2022-12-11T16:47:00.114Z,12.67
2022-12-11T16:49:27.003Z,12.10
2022-12-11T16:51:53.885Z,12.20
2022-12-11T16:54:20.576Z,12.63
2022-12-11T16:56:47.465Z,13.07
2022-12-11T16:59:14.158Z,11.53
2022-12-11T17:01:44.945Z,11.40
2022-12-11T17:04:11.745Z,10.97
2022-12-11T17:06:38.574Z,11.20
2022-12-11T17:09:05.371Z,11.57
2022-12-11T17:11:32.118Z,11.40
2022-12-11T17:14:02.922Z,10.97
2022-12-11T17:16:33.974Z,11.23
2022-12-11T17:19:00.844Z,11.70
2022-12-11T17:21:27.610Z,12.57
2022-12-11T17:23:54.416Z,11.50
2022-12-11T17:26:21.316Z,11.80
2022-12-11T17:28:48.300Z,12.83
2022-12-11T17:31:19.340Z,12.43
2022-12-11T17:33:46.995Z,11.53
2022-12-11T17:36:17.692Z,11.30
2022-12-11T17:38:47.792Z,11.50
2022-12-11T17:41:20.501Z,11.93
2022-12-11T17:43:49.549Z,12.57
2022-12-11T17:46:16.948Z,12.47
2022-12-11T17:48:46.347Z,12.37
2022-12-11T17:51:20.944Z,12.93
2022-12-11T17:53:48.029Z,14.30
2022-12-11T17:56:14.837Z,12.70
2022-12-11T17:58:41.918Z,13.07
2022-12-11T18:01:09.989Z,12.77
2022-12-11T18:03:38.018Z,13.17
2022-12-11T18:06:11.402Z,12.27
2022-12-11T18:08:39.561Z,12.10
2022-12-11T18:11:19.649Z,12.33
2022-12-11T18:13:46.657Z,13.00
2022-12-11T18:16:17.396Z,12.53
2022-12-11T18:18:46.291Z,12.27
2022-12-11T18:21:15.828Z,13.53
2022-12-11T18:23:42.913Z,14.17
2022-12-11T18:26:11.738Z,14.40
2022-12-11T18:28:41.163Z,13.43
2022-12-11T18:31:09.753Z,13.13
2022-12-11T18:33:38.932Z,13.23
2022-12-11T18:36:06.576Z,13.33
2022-12-11T18:38:34.066Z,13.10
2022-12-11T18:41:05.448Z,15.07
2022-12-11T18:43:32.471Z,12.77
2022-12-11T18:45:59.644Z,12.50
2022-12-11T18:48:32.382Z,12.40
2022-12-11T18:50:59.224Z,11.70
2022-12-11T18:53:28.942Z,11.97
2022-12-11T18:56:00.232Z,12.13
2022-12-11T18:58:27.433Z,11.43
2022-12-11T19:00:54.326Z,11.30
2022-12-11T19:03:21.071Z,11.40
2022-12-11T19:05:47.742Z,11.10
2022-12-11T19:08:16.171Z,11.47
2022-12-11T19:10:47.346Z,11.53
2022-12-11T19:13:14.893Z,11.17
2022-12-11T19:15:43.096Z,12.70
2022-12-11T19:18:10.652Z,11.87
2022-12-11T19:20:49.199Z,11.97
2022-12-11T19:23:17.747Z,11.43
2022-12-11T19:25:47.671Z,12.60
2022-12-11T19:28:15.440Z,12.10
2022-12-11T19:30:49.927Z,11.53
2022-12-11T19:33:17.212Z,10.93
2022-12-11T19:35:44.345Z,12.07
2022-12-11T19:38:12.729Z,12.13
2022-12-11T19:40:44.341Z,12.87
2022-12-11T19:43:11.632Z,12.93
2022-12-11T19:45:42.790Z,12.23
2022-12-11T19:48:09.504Z,11.80
2022-12-11T19:50:36.488Z,12.17
2022-12-11T19:53:03.939Z,12.03
2022-12-11T19:55:30.835Z,12.47
2022-12-11T19:57:57.617Z,12.07
2022-12-11T20:00:24.866Z,12.83
2022-12-11T20:02:51.896Z,13.60
2022-12-11T20:05:21.748Z,12.47
2022-12-11T20:07:52.086Z,13.27
2022-12-11T20:10:24.401Z,12.87
2022-12-11T20:12:52.538Z,12.60
2022-12-11T20:15:20.469Z,13.37
2022-12-11T20:17:47.452Z,12.57
2022-12-11T20:20:14.192Z,12.27
2022-12-11T20:22:40.975Z,12.90
2022-12-11T20:25:08.089Z,13.47
2022-12-11T20:27:34.907Z,12.40
2022-12-11T20:30:01.874Z,12.63
2022-12-11T20:32:28.578Z,13.07
2022-12-11T20:34:56.770Z,12.90
2022-12-11T20:37:24.417Z,13.37
2022-12-11T20:39:51.466Z,14.40
2022-12-11T20:42:20.822Z,14.17
2022-12-11T20:44:49.400Z,12.10
2022-12-11T20:47:19.736Z,14.53
2022-12-11T20:49:49.748Z,13.87
2022-12-11T20:52:17.421Z,14.53
2022-12-11T20:54:44.981Z,14.87
2022-12-11T20:57:12.463Z,15.40
2022-12-11T20:59:39.266Z,14.33
2022-12-11T21:02:08.454Z,15.30
2022-12-11T21:04:41.008Z,14.23
2022-12-11T21:07:09.465Z,14.17
2022-12-11T21:09:37.020Z,14.93
2022-12-11T21:12:15.749Z,15.17
2022-12-11T21:14:42.422Z,16.07
2022-12-11T21:17:09.132Z,14.80
2022-12-11T21:19:36.515Z,15.17
2022-12-11T21:22:03.847Z,14.30
2022-12-11T21:24:31.470Z,13.90
2022-12-11T21:26:59.071Z,15.37
2022-12-11T21:29:29.274Z,13.97
2022-12-11T21:31:56.499Z,13.70
2022-12-11T21:34:25.731Z,14.40
2022-12-11T21:36:56.518Z,15.73
2022-12-11T21:39:25.305Z,14.07
2022-12-11T21:41:52.019Z,15.70
2022-12-11T21:47:08.602Z,14.77
2022-12-11T21:49:38.198Z,14.80
2022-12-11T21:52:09.027Z,15.73
2022-12-11T21:54:35.812Z,16.13
2022-12-11T21:57:02.663Z,15.43
2022-12-11T21:59:29.947Z,16.47
2022-12-11T22:01:57.077Z,15.20
2022-12-11T22:04:23.909Z,15.50
2022-12-11T22:06:50.686Z,14.23
2022-12-11T22:09:18.041Z,14.03
2022-12-11T22:11:48.216Z,15.23
2022-12-11T22:14:17.753Z,16.33
2022-12-11T22:16:47.585Z,14.73
2022-12-11T22:19:14.389Z,15.43
2022-12-11T22:21:41.126Z,15.93
2022-12-11T22:24:08.131Z,15.13
2022-12-11T22:26:37.630Z,16.43
2022-12-11T22:29:04.410Z,15.77
2022-12-11T22:31:31.118Z,15.87
2022-12-11T22:33:57.981Z,15.77
2022-12-11T22:36:26.651Z,16.63
2022-12-11T22:38:53.502Z,15.30
2022-12-11T22:41:26.150Z,15.57
2022-12-11T22:43:53.518Z,14.53
2022-12-11T22:46:24.965Z,14.67
2022-12-11T22:48:52.562Z,16.70
2022-12-11T22:51:20.101Z,15.40
2022-12-11T22:53:47.586Z,15.03
2022-12-11T22:56:14.498Z,14.70
2022-12-11T22:58:41.714Z,16.10
2022-12-11T23:01:14.458Z,15.03
2022-12-11T23:03:41.331Z,15.67
2022-12-11T23:06:11.443Z,14.70
2022-12-11T23:08:39.582Z,14.97
2022-12-11T23:11:15.379Z,15.90
2022-12-11T23:13:42.239Z,17.10
2022-12-11T23:16:09.570Z,15.30
2022-12-11T23:18:36.557Z,15.33
2022-12-11T23:21:04.241Z,15.93
2022-12-11T23:23:30.939Z,15.80
2022-12-11T23:25:57.816Z,16.53
2022-12-11T23:28:27.002Z,14.17
2022-12-11T23:30:53.828Z,15.63
2022-12-11T23:33:20.679Z,15.17
2022-12-11T23:35:47.500Z,14.97
2022-12-11T23:38:14.170Z,14.90
2022-12-11T23:40:40.864Z,15.43
2022-12-11T23:43:07.666Z,13.83
2022-12-11T23:45:34.441Z,14.37
2022-12-11T23:48:01.288Z,15.77
2022-12-11T23:50:28.207Z,15.40
2022-12-11T23:52:54.947Z,14.90
2022-12-11T23:55:21.950Z,14.80
2022-12-11T23:57:48.902Z,15.27
